sensor_id;sensor_type;location;lat;lon;timestamp;P1;durP1;ratioP1;P2;durP2;ratioP2
40591;SDS011;26301;42.832;23.918;2022-09-13T00:00:47;4.82;;;3.05;;
40591;SDS011;26301;42.832;23.918;2022-09-13T00:03:14;4.00;;;3.17;;
40591;SDS011;26301;42.832;23.918;2022-09-13T00:05:40;5.30;;;2.90;;
40591;SDS011;26301;42.832;23.918;2022-09-13T00:08:07;6.93;;;2.90;;
40591;SDS011;26301;42.832;23.918;2022-09-13T00:10:34;8.57;;;3.40;;
40591;SDS011;26301;42.832;23.918;2022-09-13T00:13:03;5.70;;;3.10;;
40591;SDS011;26301;42.832;23.918;2022-09-13T00:15:29;5.22;;;3.00;;
40591;SDS011;26301;42.832;23.918;2022-09-13T00:17:55;5.13;;;3.10;;
40591;SDS011;26301;42.832;23.918;2022-09-13T00:20:21;4.10;;;3.08;;
40591;SDS011;26301;42.832;23.918;2022-09-13T00:22:47;5.15;;;3.17;;
40591;SDS011;26301;42.832;23.918;2022-09-13T00:25:13;4.22;;;2.60;;
40591;SDS011;26301;42.832;23.918;2022-09-13T00:27:39;5.47;;;3.28;;
40591;SDS011;26301;42.832;23.918;2022-09-13T00:30:05;4.40;;;3.63;;
40591;SDS011;26301;42.832;23.918;2022-09-13T00:32:33;4.20;;;3.10;;
40591;SDS011;26301;42.832;23.918;2022-09-13T00:35:00;3.70;;;2.90;;
40591;SDS011;26301;42.832;23.918;2022-09-13T00:37:27;5.38;;;2.95;;
40591;SDS011;26301;42.832;23.918;2022-09-13T00:39:53;2.92;;;2.50;;
40591;SDS011;26301;42.832;23.918;2022-09-13T00:42:29;5.82;;;3.45;;
40591;SDS011;26301;42.832;23.918;2022-09-13T00:44:58;6.95;;;3.00;;
40591;SDS011;26301;42.832;23.918;2022-09-13T00:49:50;6.60;;;2.92;;
40591;SDS011;26301;42.832;23.918;2022-09-13T00:52:39;3.97;;;2.78;;
40591;SDS011;26301;42.832;23.918;2022-09-13T00:55:09;8.48;;;3.03;;
40591;SDS011;26301;42.832;23.918;2022-09-13T00:57:40;6.80;;;2.90;;
40591;SDS011;26301;42.832;23.918;2022-09-13T01:00:08;3.33;;;2.75;;
40591;SDS011;26301;42.832;23.918;2022-09-13T01:02:39;5.72;;;3.05;;
40591;SDS011;26301;42.832;23.918;2022-09-13T01:05:08;6.30;;;3.13;;
40591;SDS011;26301;42.832;23.918;2022-09-13T01:07:35;6.30;;;2.95;;
40591;SDS011;26301;42.832;23.918;2022-09-13T01:10:02;6.68;;;3.17;;
40591;SDS011;26301;42.832;23.918;2022-09-13T01:12:51;6.95;;;3.00;;
40591;SDS011;26301;42.832;23.918;2022-09-13T01:15:22;5.88;;;3.38;;
40591;SDS011;26301;42.832;23.918;2022-09-13T01:17:49;5.78;;;3.22;;
40591;SDS011;26301;42.832;23.918;2022-09-13T01:20:19;4.70;;;3.08;;
40591;SDS011;26301;42.832;23.918;2022-09-13T01:26:15;4.95;;;3.45;;
40591;SDS011;26301;42.832;23.918;2022-09-13T01:34:46;4.40;;;3.38;;
40591;SDS011;26301;42.832;23.918;2022-09-13T01:37:38;3.97;;;3.10;;
40591;SDS011;26301;42.832;23.918;2022-09-13T01:57:00;4.95;;;3.50;;
40591;SDS011;26301;42.832;23.918;2022-09-13T01:59:38;4.53;;;3.42;;
40591;SDS011;26301;42.832;23.918;2022-09-13T02:02:11;3.85;;;2.75;;
40591;SDS011;26301;42.832;23.918;2022-09-13T02:04:51;5.20;;;2.80;;
40591;SDS011;26301;42.832;23.918;2022-09-13T02:07:34;4.05;;;3.05;;
40591;SDS011;26301;42.832;23.918;2022-09-13T02:10:08;4.78;;;3.10;;
40591;SDS011;26301;42.832;23.918;2022-09-13T02:12:39;5.78;;;3.10;;
40591;SDS011;26301;42.832;23.918;2022-09-13T02:15:09;3.53;;;2.70;;
40591;SDS011;26301;42.832;23.918;2022-09-13T02:17:37;4.85;;;2.58;;
40591;SDS011;26301;42.832;23.918;2022-09-13T02:20:11;3.08;;;2.50;;
40591;SDS011;26301;42.832;23.918;2022-09-13T02:22:45;4.32;;;2.85;;
40591;SDS011;26301;42.832;23.918;2022-09-13T02:25:15;6.43;;;3.20;;
40591;SDS011;26301;42.832;23.918;2022-09-13T02:27:47;7.80;;;2.90;;
40591;SDS011;26301;42.832;23.918;2022-09-13T02:30:15;4.57;;;2.58;;
40591;SDS011;26301;42.832;23.918;2022-09-13T02:33:07;5.13;;;2.50;;
40591;SDS011;26301;42.832;23.918;2022-09-13T02:35:44;5.47;;;2.92;;
40591;SDS011;26301;42.832;23.918;2022-09-13T02:38:30;4.63;;;2.88;;
40591;SDS011;26301;42.832;23.918;2022-09-13T02:43:56;5.30;;;3.83;;
40591;SDS011;26301;42.832;23.918;2022-09-13T02:52:46;4.68;;;3.17;;
40591;SDS011;26301;42.832;23.918;2022-09-13T02:55:24;4.40;;;2.95;;
40591;SDS011;26301;42.832;23.918;2022-09-13T02:58:13;4.90;;;2.75;;
40591;SDS011;26301;42.832;23.918;2022-09-13T03:00:44;5.45;;;3.00;;
40591;SDS011;26301;42.832;23.918;2022-09-13T03:03:11;3.80;;;3.08;;
40591;SDS011;26301;42.832;23.918;2022-09-13T03:05:40;6.57;;;3.17;;
40591;SDS011;26301;42.832;23.918;2022-09-13T03:08:06;3.50;;;2.40;;
40591;SDS011;26301;42.832;23.918;2022-09-13T03:16:42;3.50;;;2.90;;
40591;SDS011;26301;42.832;23.918;2022-09-13T03:33:45;4.47;;;2.60;;
40591;SDS011;26301;42.832;23.918;2022-09-13T03:36:35;5.35;;;3.17;;
40591;SDS011;26301;42.832;23.918;2022-09-13T03:39:08;4.25;;;3.22;;
40591;SDS011;26301;42.832;23.918;2022-09-13T03:41:50;3.45;;;2.50;;
40591;SDS011;26301;42.832;23.918;2022-09-13T03:44:21;3.72;;;2.72;;
40591;SDS011;26301;42.832;23.918;2022-09-13T03:46:50;4.20;;;2.95;;
40591;SDS011;26301;42.832;23.918;2022-09-13T03:49:22;8.38;;;3.15;;
40591;SDS011;26301;42.832;23.918;2022-09-13T03:51:50;5.28;;;2.75;;
40591;SDS011;26301;42.832;23.918;2022-09-13T03:54:19;5.90;;;2.97;;
40591;SDS011;26301;42.832;23.918;2022-09-13T03:59:52;3.13;;;2.45;;
40591;SDS011;26301;42.832;23.918;2022-09-13T04:02:20;6.00;;;3.03;;
40591;SDS011;26301;42.832;23.918;2022-09-13T04:04:47;9.07;;;3.05;;
40591;SDS011;26301;42.832;23.918;2022-09-13T04:07:15;6.25;;;3.30;;
40591;SDS011;26301;42.832;23.918;2022-09-13T04:09:45;4.70;;;3.05;;
40591;SDS011;26301;42.832;23.918;2022-09-13T04:12:12;4.88;;;2.92;;
40591;SDS011;26301;42.832;23.918;2022-09-13T04:14:39;3.47;;;2.70;;
40591;SDS011;26301;42.832;23.918;2022-09-13T04:17:07;3.95;;;3.22;;
40591;SDS011;26301;42.832;23.918;2022-09-13T04:19:36;6.30;;;2.88;;
40591;SDS011;26301;42.832;23.918;2022-09-13T04:22:03;10.07;;;3.28;;
40591;SDS011;26301;42.832;23.918;2022-09-13T04:24:29;8.15;;;3.58;;
40591;SDS011;26301;42.832;23.918;2022-09-13T04:26:55;5.93;;;3.30;;
40591;SDS011;26301;42.832;23.918;2022-09-13T04:29:22;4.88;;;3.20;;
40591;SDS011;26301;42.832;23.918;2022-09-13T04:31:50;5.00;;;3.08;;
40591;SDS011;26301;42.832;23.918;2022-09-13T04:34:17;5.60;;;3.20;;
40591;SDS011;26301;42.832;23.918;2022-09-13T04:36:44;7.68;;;2.95;;
40591;SDS011;26301;42.832;23.918;2022-09-13T04:39:10;6.38;;;4.03;;
40591;SDS011;26301;42.832;23.918;2022-09-13T04:41:39;5.47;;;3.42;;
40591;SDS011;26301;42.832;23.918;2022-09-13T04:44:05;5.80;;;4.40;;
40591;SDS011;26301;42.832;23.918;2022-09-13T04:46:31;6.97;;;3.33;;
40591;SDS011;26301;42.832;23.918;2022-09-13T04:48:57;3.90;;;2.78;;
40591;SDS011;26301;42.832;23.918;2022-09-13T04:51:23;6.03;;;2.92;;
40591;SDS011;26301;42.832;23.918;2022-09-13T04:53:52;7.05;;;2.88;;
40591;SDS011;26301;42.832;23.918;2022-09-13T04:56:23;4.68;;;3.08;;
40591;SDS011;26301;42.832;23.918;2022-09-13T04:58:49;3.38;;;2.55;;
40591;SDS011;26301;42.832;23.918;2022-09-13T05:01:15;3.97;;;3.15;;
40591;SDS011;26301;42.832;23.918;2022-09-13T05:03:42;8.77;;;4.15;;
40591;SDS011;26301;42.832;23.918;2022-09-13T05:06:13;5.47;;;3.13;;
40591;SDS011;26301;42.832;23.918;2022-09-13T05:08:42;5.32;;;2.70;;
40591;SDS011;26301;42.832;23.918;2022-09-13T05:11:08;5.80;;;3.42;;
40591;SDS011;26301;42.832;23.918;2022-09-13T05:13:34;6.70;;;2.90;;
40591;SDS011;26301;42.832;23.918;2022-09-13T05:16:05;3.60;;;2.97;;
40591;SDS011;26301;42.832;23.918;2022-09-13T05:18:32;5.10;;;3.20;;
40591;SDS011;26301;42.832;23.918;2022-09-13T05:21:00;4.72;;;3.10;;
40591;SDS011;26301;42.832;23.918;2022-09-13T05:23:28;5.60;;;2.58;;
40591;SDS011;26301;42.832;23.918;2022-09-13T05:25:59;4.53;;;3.25;;
40591;SDS011;26301;42.832;23.918;2022-09-13T05:28:27;7.72;;;2.85;;
40591;SDS011;26301;42.832;23.918;2022-09-13T05:30:55;4.57;;;3.13;;
40591;SDS011;26301;42.832;23.918;2022-09-13T05:33:26;3.58;;;2.20;;
40591;SDS011;26301;42.832;23.918;2022-09-13T05:35:56;3.88;;;2.42;;
40591;SDS011;26301;42.832;23.918;2022-09-13T05:38:23;4.95;;;2.90;;
40591;SDS011;26301;42.832;23.918;2022-09-13T05:40:55;4.22;;;2.78;;
40591;SDS011;26301;42.832;23.918;2022-09-13T05:43:23;5.13;;;2.95;;
40591;SDS011;26301;42.832;23.918;2022-09-13T05:46:06;4.80;;;2.88;;
40591;SDS011;26301;42.832;23.918;2022-09-13T05:48:37;4.68;;;2.40;;
40591;SDS011;26301;42.832;23.918;2022-09-13T05:51:07;5.30;;;2.35;;
40591;SDS011;26301;42.832;23.918;2022-09-13T05:53:35;3.65;;;2.25;;
40591;SDS011;26301;42.832;23.918;2022-09-13T05:56:04;6.07;;;2.72;;
40591;SDS011;26301;42.832;23.918;2022-09-13T05:58:31;7.47;;;2.65;;
40591;SDS011;26301;42.832;23.918;2022-09-13T06:00:57;3.08;;;2.47;;
40591;SDS011;26301;42.832;23.918;2022-09-13T06:03:23;4.18;;;2.80;;
40591;SDS011;26301;42.832;23.918;2022-09-13T06:05:53;4.30;;;2.45;;
40591;SDS011;26301;42.832;23.918;2022-09-13T06:08:21;3.75;;;2.50;;
40591;SDS011;26301;42.832;23.918;2022-09-13T06:10:58;5.72;;;2.30;;
40591;SDS011;26301;42.832;23.918;2022-09-13T06:13:28;3.17;;;2.13;;
40591;SDS011;26301;42.832;23.918;2022-09-13T06:15:55;3.65;;;2.50;;
40591;SDS011;26301;42.832;23.918;2022-09-13T06:18:22;3.17;;;2.20;;
40591;SDS011;26301;42.832;23.918;2022-09-13T06:20:50;3.05;;;2.13;;
40591;SDS011;26301;42.832;23.918;2022-09-13T06:23:21;6.43;;;2.10;;
40591;SDS011;26301;42.832;23.918;2022-09-13T06:25:48;4.70;;;2.08;;
40591;SDS011;26301;42.832;23.918;2022-09-13T06:28:14;2.85;;;1.80;;
40591;SDS011;26301;42.832;23.918;2022-09-13T06:30:40;4.07;;;1.90;;
40591;SDS011;26301;42.832;23.918;2022-09-13T06:33:07;3.00;;;1.88;;
40591;SDS011;26301;42.832;23.918;2022-09-13T06:35:33;5.28;;;2.22;;
40591;SDS011;26301;42.832;23.918;2022-09-13T06:37:59;4.15;;;2.20;;
40591;SDS011;26301;42.832;23.918;2022-09-13T06:40:25;3.65;;;1.80;;
40591;SDS011;26301;42.832;23.918;2022-09-13T06:42:51;3.10;;;1.55;;
40591;SDS011;26301;42.832;23.918;2022-09-13T06:45:16;2.80;;;1.80;;
40591;SDS011;26301;42.832;23.918;2022-09-13T06:47:42;4.05;;;2.20;;
40591;SDS011;26301;42.832;23.918;2022-09-13T06:50:09;3.28;;;1.80;;
40591;SDS011;26301;42.832;23.918;2022-09-13T06:52:35;3.03;;;1.90;;
40591;SDS011;26301;42.832;23.918;2022-09-13T06:55:01;2.75;;;2.00;;
40591;SDS011;26301;42.832;23.918;2022-09-13T06:57:30;2.53;;;1.70;;
40591;SDS011;26301;42.832;23.918;2022-09-13T06:59:56;3.45;;;1.90;;
40591;SDS011;26301;42.832;23.918;2022-09-13T07:02:22;5.93;;;2.13;;
40591;SDS011;26301;42.832;23.918;2022-09-13T07:04:49;4.53;;;2.00;;
40591;SDS011;26301;42.832;23.918;2022-09-13T07:07:15;5.65;;;2.05;;
40591;SDS011;26301;42.832;23.918;2022-09-13T07:09:40;3.70;;;1.95;;
40591;SDS011;26301;42.832;23.918;2022-09-13T07:12:07;4.53;;;1.80;;
40591;SDS011;26301;42.832;23.918;2022-09-13T07:14:33;2.63;;;1.88;;
40591;SDS011;26301;42.832;23.918;2022-09-13T07:16:59;4.05;;;1.75;;
40591;SDS011;26301;42.832;23.918;2022-09-13T07:19:26;4.95;;;1.75;;
40591;SDS011;26301;42.832;23.918;2022-09-13T07:21:53;2.53;;;1.63;;
40591;SDS011;26301;42.832;23.918;2022-09-13T07:24:20;2.55;;;1.85;;
40591;SDS011;26301;42.832;23.918;2022-09-13T07:26:47;1.88;;;1.48;;
40591;SDS011;26301;42.832;23.918;2022-09-13T07:29:14;3.33;;;2.10;;
40591;SDS011;26301;42.832;23.918;2022-09-13T07:31:44;2.97;;;2.13;;
40591;SDS011;26301;42.832;23.918;2022-09-13T07:34:13;2.50;;;1.92;;
40591;SDS011;26301;42.832;23.918;2022-09-13T07:36:41;1.77;;;1.55;;
40591;SDS011;26301;42.832;23.918;2022-09-13T07:39:09;2.97;;;1.70;;
40591;SDS011;26301;42.832;23.918;2022-09-13T07:41:35;3.97;;;1.50;;
40591;SDS011;26301;42.832;23.918;2022-09-13T07:44:01;2.72;;;1.85;;
40591;SDS011;26301;42.832;23.918;2022-09-13T07:46:29;3.10;;;1.60;;
40591;SDS011;26301;42.832;23.918;2022-09-13T07:48:56;3.25;;;1.52;;
40591;SDS011;26301;42.832;23.918;2022-09-13T07:51:26;2.17;;;1.50;;
40591;SDS011;26301;42.832;23.918;2022-09-13T07:53:57;2.63;;;1.73;;
40591;SDS011;26301;42.832;23.918;2022-09-13T07:56:26;3.80;;;1.67;;
40591;SDS011;26301;42.832;23.918;2022-09-13T07:58:54;2.08;;;1.50;;
40591;SDS011;26301;42.832;23.918;2022-09-13T08:01:32;3.10;;;1.77;;
40591;SDS011;26301;42.832;23.918;2022-09-13T08:04:03;2.58;;;1.70;;
40591;SDS011;26301;42.832;23.918;2022-09-13T08:06:32;3.38;;;1.70;;
40591;SDS011;26301;42.832;23.918;2022-09-13T08:08:58;2.50;;;1.75;;
40591;SDS011;26301;42.832;23.918;2022-09-13T08:11:28;2.88;;;1.88;;
40591;SDS011;26301;42.832;23.918;2022-09-13T08:13:56;2.10;;;1.58;;
40591;SDS011;26301;42.832;23.918;2022-09-13T08:16:23;4.05;;;1.83;;
40591;SDS011;26301;42.832;23.918;2022-09-13T08:18:52;3.65;;;1.60;;
40591;SDS011;26301;42.832;23.918;2022-09-13T08:21:19;2.83;;;1.60;;
40591;SDS011;26301;42.832;23.918;2022-09-13T08:23:46;2.67;;;1.83;;
40591;SDS011;26301;42.832;23.918;2022-09-13T08:26:13;2.25;;;1.40;;
40591;SDS011;26301;42.832;23.918;2022-09-13T08:28:40;2.17;;;1.40;;
40591;SDS011;26301;42.832;23.918;2022-09-13T08:31:07;2.53;;;1.52;;
40591;SDS011;26301;42.832;23.918;2022-09-13T08:33:35;3.33;;;2.05;;
40591;SDS011;26301;42.832;23.918;2022-09-13T08:36:02;2.75;;;1.88;;
40591;SDS011;26301;42.832;23.918;2022-09-13T08:38:28;3.10;;;1.92;;
40591;SDS011;26301;42.832;23.918;2022-09-13T08:41:00;2.67;;;1.45;;
40591;SDS011;26301;42.832;23.918;2022-09-13T08:46:07;4.90;;;1.65;;
40591;SDS011;26301;42.832;23.918;2022-09-13T08:48:43;2.58;;;1.70;;
40591;SDS011;26301;42.832;23.918;2022-09-13T08:51:22;5.22;;;2.10;;
40591;SDS011;26301;42.832;23.918;2022-09-13T08:53:48;2.20;;;1.50;;
40591;SDS011;26301;42.832;23.918;2022-09-13T08:56:19;3.00;;;1.73;;
40591;SDS011;26301;42.832;23.918;2022-09-13T09:04:14;7.20;;;1.80;;
40591;SDS011;26301;42.832;23.918;2022-09-13T09:06:52;7.57;;;1.85;;
40591;SDS011;26301;42.832;23.918;2022-09-13T09:09:30;3.83;;;1.90;;
40591;SDS011;26301;42.832;23.918;2022-09-13T09:14:53;3.03;;;1.70;;
40591;SDS011;26301;42.832;23.918;2022-09-13T09:17:25;3.22;;;1.60;;
40591;SDS011;26301;42.832;23.918;2022-09-13T09:20:15;2.53;;;1.63;;
40591;SDS011;26301;42.832;23.918;2022-09-13T09:23:03;2.45;;;1.67;;
40591;SDS011;26301;42.832;23.918;2022-09-13T09:25:37;3.22;;;1.40;;
40591;SDS011;26301;42.832;23.918;2022-09-13T09:28:08;2.35;;;1.60;;
40591;SDS011;26301;42.832;23.918;2022-09-13T09:30:45;2.47;;;1.85;;
40591;SDS011;26301;42.832;23.918;2022-09-13T09:33:34;2.33;;;1.52;;
40591;SDS011;26301;42.832;23.918;2022-09-13T09:39:11;3.03;;;1.70;;
40591;SDS011;26301;42.832;23.918;2022-09-13T09:41:40;3.58;;;1.50;;
40591;SDS011;26301;42.832;23.918;2022-09-13T09:44:18;4.05;;;1.45;;
40591;SDS011;26301;42.832;23.918;2022-09-13T09:47:03;3.88;;;1.55;;
40591;SDS011;26301;42.832;23.918;2022-09-13T09:52:25;5.22;;;1.65;;
40591;SDS011;26301;42.832;23.918;2022-09-13T09:54:55;4.70;;;1.20;;
40591;SDS011;26301;42.832;23.918;2022-09-13T09:58:02;2.47;;;1.23;;
40591;SDS011;26301;42.832;23.918;2022-09-13T10:00:25;1.67;;;1.30;;
40591;SDS011;26301;42.832;23.918;2022-09-13T10:02:55;1.92;;;1.20;;
40591;SDS011;26301;42.832;23.918;2022-09-13T10:05:27;1.60;;;1.02;;
40591;SDS011;26301;42.832;23.918;2022-09-13T10:08:06;1.80;;;1.05;;
40591;SDS011;26301;42.832;23.918;2022-09-13T10:10:37;1.55;;;1.10;;
40591;SDS011;26301;42.832;23.918;2022-09-13T10:13:11;2.70;;;1.10;;
40591;SDS011;26301;42.832;23.918;2022-09-13T10:15:56;2.30;;;1.40;;
40591;SDS011;26301;42.832;23.918;2022-09-13T10:18:33;1.70;;;1.13;;
40591;SDS011;26301;42.832;23.918;2022-09-13T10:21:05;2.05;;;1.13;;
40591;SDS011;26301;42.832;23.918;2022-09-13T10:23:44;6.93;;;1.50;;
40591;SDS011;26301;42.832;23.918;2022-09-13T10:26:19;2.17;;;1.10;;
40591;SDS011;26301;42.832;23.918;2022-09-13T10:28:51;4.30;;;1.50;;
40591;SDS011;26301;42.832;23.918;2022-09-13T10:36:21;1.13;;;0.98;;
40591;SDS011;26301;42.832;23.918;2022-09-13T10:39:02;1.70;;;1.20;;
40591;SDS011;26301;42.832;23.918;2022-09-13T10:41:34;4.72;;;1.33;;
40591;SDS011;26301;42.832;23.918;2022-09-13T10:44:04;1.35;;;1.20;;
40591;SDS011;26301;42.832;23.918;2022-09-13T10:46:47;4.05;;;1.20;;
40591;SDS011;26301;42.832;23.918;2022-09-13T10:52:22;1.55;;;1.20;;
40591;SDS011;26301;42.832;23.918;2022-09-13T10:54:51;3.10;;;1.33;;
40591;SDS011;26301;42.832;23.918;2022-09-13T10:57:36;2.85;;;1.20;;
40591;SDS011;26301;42.832;23.918;2022-09-13T11:00:05;1.30;;;1.00;;
40591;SDS011;26301;42.832;23.918;2022-09-13T11:02:45;1.55;;;1.15;;
40591;SDS011;26301;42.832;23.918;2022-09-13T11:05:20;1.95;;;1.30;;
40591;SDS011;26301;42.832;23.918;2022-09-13T11:19:19;2.17;;;1.30;;
40591;SDS011;26301;42.832;23.918;2022-09-13T11:24:56;2.92;;;1.13;;
40591;SDS011;26301;42.832;23.918;2022-09-13T11:27:49;2.25;;;1.00;;
40591;SDS011;26301;42.832;23.918;2022-09-13T11:30:26;2.25;;;1.38;;
40591;SDS011;26301;42.832;23.918;2022-09-13T11:33:20;2.53;;;0.90;;
40591;SDS011;26301;42.832;23.918;2022-09-13T11:36:03;2.20;;;1.20;;
40591;SDS011;26301;42.832;23.918;2022-09-13T11:55:15;1.13;;;0.75;;
40591;SDS011;26301;42.832;23.918;2022-09-13T11:57:46;1.27;;;0.90;;
40591;SDS011;26301;42.832;23.918;2022-09-13T12:03:04;1.70;;;1.13;;
40591;SDS011;26301;42.832;23.918;2022-09-13T12:05:35;2.55;;;1.00;;
40591;SDS011;26301;42.832;23.918;2022-09-13T12:08:23;1.95;;;1.23;;
40591;SDS011;26301;42.832;23.918;2022-09-13T12:13:35;3.70;;;1.00;;
40591;SDS011;26301;42.832;23.918;2022-09-13T12:16:18;1.90;;;1.00;;
40591;SDS011;26301;42.832;23.918;2022-09-13T12:18:56;1.15;;;0.90;;
40591;SDS011;26301;42.832;23.918;2022-09-13T12:21:28;1.75;;;0.93;;
40591;SDS011;26301;42.832;23.918;2022-09-13T12:26:29;1.98;;;1.10;;
40591;SDS011;26301;42.832;23.918;2022-09-13T12:31:43;2.85;;;0.90;;
40591;SDS011;26301;42.832;23.918;2022-09-13T12:34:13;2.03;;;1.20;;
40591;SDS011;26301;42.832;23.918;2022-09-13T12:36:57;1.10;;;0.90;;
40591;SDS011;26301;42.832;23.918;2022-09-13T12:40:08;2.17;;;1.13;;
40591;SDS011;26301;42.832;23.918;2022-09-13T12:48:05;2.53;;;1.00;;
40591;SDS011;26301;42.832;23.918;2022-09-13T12:50:57;1.40;;;0.82;;
40591;SDS011;26301;42.832;23.918;2022-09-13T13:01:36;1.63;;;0.80;;
40591;SDS011;26301;42.832;23.918;2022-09-13T13:12:07;1.95;;;0.90;;
40591;SDS011;26301;42.832;23.918;2022-09-13T13:14:50;2.85;;;1.17;;
40591;SDS011;26301;42.832;23.918;2022-09-13T13:17:34;1.25;;;1.00;;
40591;SDS011;26301;42.832;23.918;2022-09-13T13:23:28;2.08;;;1.30;;
40591;SDS011;26301;42.832;23.918;2022-09-13T13:26:07;1.17;;;1.00;;
40591;SDS011;26301;42.832;23.918;2022-09-13T13:34:02;1.58;;;1.02;;
40591;SDS011;26301;42.832;23.918;2022-09-13T13:36:47;1.08;;;0.95;;
40591;SDS011;26301;42.832;23.918;2022-09-13T13:46:45;2.20;;;1.10;;
40591;SDS011;26301;42.832;23.918;2022-09-13T14:10:37;1.73;;;1.20;;
40591;SDS011;26301;42.832;23.918;2022-09-13T14:13:38;3.35;;;1.00;;
40591;SDS011;26301;42.832;23.918;2022-09-13T14:19:14;3.35;;;1.25;;
40591;SDS011;26301;42.832;23.918;2022-09-13T14:22:04;2.22;;;1.50;;
40591;SDS011;26301;42.832;23.918;2022-09-13T14:24:44;6.40;;;3.90;;
40591;SDS011;26301;42.832;23.918;2022-09-13T14:27:17;6.70;;;3.22;;
40591;SDS011;26301;42.832;23.918;2022-09-13T14:29:46;4.13;;;1.98;;
40591;SDS011;26301;42.832;23.918;2022-09-13T14:32:17;4.40;;;1.48;;
40591;SDS011;26301;42.832;23.918;2022-09-13T14:37:22;1.65;;;1.08;;
40591;SDS011;26301;42.832;23.918;2022-09-13T14:39:56;2.67;;;1.38;;
40591;SDS011;26301;42.832;23.918;2022-09-13T14:42:35;5.00;;;1.20;;
40591;SDS011;26301;42.832;23.918;2022-09-13T14:45:10;3.70;;;0.93;;
40591;SDS011;26301;42.832;23.918;2022-09-13T14:47:49;1.00;;;0.90;;
40591;SDS011;26301;42.832;23.918;2022-09-13T14:50:24;1.77;;;1.30;;
40591;SDS011;26301;42.832;23.918;2022-09-13T14:55:27;1.48;;;1.00;;
40591;SDS011;26301;42.832;23.918;2022-09-13T14:58:01;2.60;;;1.20;;
40591;SDS011;26301;42.832;23.918;2022-09-13T15:00:31;5.03;;;1.83;;
40591;SDS011;26301;42.832;23.918;2022-09-13T15:03:04;3.15;;;1.95;;
40591;SDS011;26301;42.832;23.918;2022-09-13T15:05:37;3.45;;;1.40;;
40591;SDS011;26301;42.832;23.918;2022-09-13T15:10:58;2.08;;;1.35;;
40591;SDS011;26301;42.832;23.918;2022-09-13T15:13:25;3.63;;;1.05;;
40591;SDS011;26301;42.832;23.918;2022-09-13T15:15:51;2.28;;;1.20;;
40591;SDS011;26301;42.832;23.918;2022-09-13T15:20:45;1.42;;;1.20;;
40591;SDS011;26301;42.832;23.918;2022-09-13T15:25:54;4.15;;;1.40;;
40591;SDS011;26301;42.832;23.918;2022-09-13T15:28:35;2.90;;;1.30;;
40591;SDS011;26301;42.832;23.918;2022-09-13T15:31:07;4.65;;;2.17;;
40591;SDS011;26301;42.832;23.918;2022-09-13T15:33:35;1.27;;;1.10;;
40591;SDS011;26301;42.832;23.918;2022-09-13T15:41:35;2.85;;;1.10;;
40591;SDS011;26301;42.832;23.918;2022-09-13T15:44:03;1.75;;;1.23;;
40591;SDS011;26301;42.832;23.918;2022-09-13T15:46:30;1.60;;;1.30;;
40591;SDS011;26301;42.832;23.918;2022-09-13T15:49:03;4.55;;;1.40;;
40591;SDS011;26301;42.832;23.918;2022-09-13T15:51:32;4.22;;;1.42;;
40591;SDS011;26301;42.832;23.918;2022-09-13T15:54:00;9.07;;;4.70;;
40591;SDS011;26301;42.832;23.918;2022-09-13T15:56:30;6.45;;;3.60;;
40591;SDS011;26301;42.832;23.918;2022-09-13T15:58:58;9.35;;;5.57;;
40591;SDS011;26301;42.832;23.918;2022-09-13T16:01:24;6.35;;;4.05;;
40591;SDS011;26301;42.832;23.918;2022-09-13T16:03:51;2.63;;;1.70;;
40591;SDS011;26301;42.832;23.918;2022-09-13T16:06:17;3.63;;;1.70;;
40591;SDS011;26301;42.832;23.918;2022-09-13T16:08:43;1.65;;;1.30;;
40591;SDS011;26301;42.832;23.918;2022-09-13T16:11:09;3.67;;;1.95;;
40591;SDS011;26301;42.832;23.918;2022-09-13T16:13:35;4.97;;;3.75;;
40591;SDS011;26301;42.832;23.918;2022-09-13T16:16:02;2.90;;;1.83;;
40591;SDS011;26301;42.832;23.918;2022-09-13T16:18:29;10.68;;;2.10;;
40591;SDS011;26301;42.832;23.918;2022-09-13T16:20:55;3.63;;;2.13;;
40591;SDS011;26301;42.832;23.918;2022-09-13T16:23:21;4.15;;;1.80;;
40591;SDS011;26301;42.832;23.918;2022-09-13T16:25:48;4.03;;;2.10;;
40591;SDS011;26301;42.832;23.918;2022-09-13T16:28:18;4.82;;;1.60;;
40591;SDS011;26301;42.832;23.918;2022-09-13T16:30:47;7.75;;;2.30;;
40591;SDS011;26301;42.832;23.918;2022-09-13T16:33:13;3.58;;;1.80;;
40591;SDS011;26301;42.832;23.918;2022-09-13T16:35:39;5.57;;;2.50;;
40591;SDS011;26301;42.832;23.918;2022-09-13T16:38:05;8.32;;;2.40;;
40591;SDS011;26301;42.832;23.918;2022-09-13T16:40:31;4.05;;;2.22;;
40591;SDS011;26301;42.832;23.918;2022-09-13T16:42:57;4.20;;;1.98;;
40591;SDS011;26301;42.832;23.918;2022-09-13T16:45:22;4.47;;;2.10;;
40591;SDS011;26301;42.832;23.918;2022-09-13T16:47:48;2.45;;;1.73;;
40591;SDS011;26301;42.832;23.918;2022-09-13T16:50:14;2.90;;;1.70;;
40591;SDS011;26301;42.832;23.918;2022-09-13T16:52:40;2.63;;;1.48;;
40591;SDS011;26301;42.832;23.918;2022-09-13T16:55:06;7.00;;;1.80;;
40591;SDS011;26301;42.832;23.918;2022-09-13T16:57:32;6.53;;;2.13;;
40591;SDS011;26301;42.832;23.918;2022-09-13T16:59:59;2.10;;;1.50;;
40591;SDS011;26301;42.832;23.918;2022-09-13T17:02:26;2.92;;;1.40;;
40591;SDS011;26301;42.832;23.918;2022-09-13T17:04:51;4.13;;;1.88;;
40591;SDS011;26301;42.832;23.918;2022-09-13T17:07:17;3.85;;;1.55;;
40591;SDS011;26301;42.832;23.918;2022-09-13T17:09:43;4.82;;;1.55;;
40591;SDS011;26301;42.832;23.918;2022-09-13T17:12:12;3.40;;;1.80;;
40591;SDS011;26301;42.832;23.918;2022-09-13T17:14:39;2.38;;;1.67;;
40591;SDS011;26301;42.832;23.918;2022-09-13T17:17:07;2.80;;;1.90;;
40591;SDS011;26301;42.832;23.918;2022-09-13T17:19:33;1.88;;;1.55;;
40591;SDS011;26301;42.832;23.918;2022-09-13T17:22:00;2.35;;;1.55;;
40591;SDS011;26301;42.832;23.918;2022-09-13T17:24:29;4.07;;;1.80;;
40591;SDS011;26301;42.832;23.918;2022-09-13T17:26:55;5.47;;;2.00;;
40591;SDS011;26301;42.832;23.918;2022-09-13T17:29:23;5.55;;;1.73;;
40591;SDS011;26301;42.832;23.918;2022-09-13T17:31:50;4.30;;;2.08;;
40591;SDS011;26301;42.832;23.918;2022-09-13T17:34:16;2.33;;;1.55;;
40591;SDS011;26301;42.832;23.918;2022-09-13T17:36:43;3.58;;;1.73;;
40591;SDS011;26301;42.832;23.918;2022-09-13T17:39:09;3.42;;;1.67;;
40591;SDS011;26301;42.832;23.918;2022-09-13T17:41:35;2.55;;;1.77;;
40591;SDS011;26301;42.832;23.918;2022-09-13T17:44:01;4.65;;;1.67;;
40591;SDS011;26301;42.832;23.918;2022-09-13T17:46:28;4.10;;;1.70;;
40591;SDS011;26301;42.832;23.918;2022-09-13T17:48:55;5.00;;;1.90;;
40591;SDS011;26301;42.832;23.918;2022-09-13T17:51:26;4.75;;;1.80;;
40591;SDS011;26301;42.832;23.918;2022-09-13T17:53:56;6.30;;;3.03;;
40591;SDS011;26301;42.832;23.918;2022-09-13T17:56:29;2.60;;;1.90;;
40591;SDS011;26301;42.832;23.918;2022-09-13T17:59:04;10.75;;;3.53;;
40591;SDS011;26301;42.832;23.918;2022-09-13T18:01:33;22.55;;;11.02;;
40591;SDS011;26301;42.832;23.918;2022-09-13T18:03:59;14.80;;;5.70;;
40591;SDS011;26301;42.832;23.918;2022-09-13T18:06:26;4.30;;;2.55;;
40591;SDS011;26301;42.832;23.918;2022-09-13T18:08:52;5.32;;;1.70;;
40591;SDS011;26301;42.832;23.918;2022-09-13T18:11:19;3.80;;;2.00;;
40591;SDS011;26301;42.832;23.918;2022-09-13T18:13:45;4.97;;;2.30;;
40591;SDS011;26301;42.832;23.918;2022-09-13T18:16:16;2.20;;;1.70;;
40591;SDS011;26301;42.832;23.918;2022-09-13T18:18:47;4.05;;;1.70;;
40591;SDS011;26301;42.832;23.918;2022-09-13T18:21:14;5.63;;;2.17;;
40591;SDS011;26301;42.832;23.918;2022-09-13T18:23:43;4.95;;;1.83;;